Latest Weather Observations for Mandurah

IDW60901

Issued at 7:41 pm WST Sunday 1 May 2016 (issued every 10 minutes, with the page automatically refreshed every 10 minutes)

About weather observations | Map of Perth area stations | Latest observations for Perth area | Other Formats
Station Details ID: 009977 Name: MANDURAH Lat: -32.52 Lon: 115.71 Height: 3.0 m
Data from the previous 72 hours. | See also: Recent months at Mandurah
Date/Time
WST
Tmp

°C
App
Tmp
°C
Dew
Point
°C
Rel
Hum
%
Delta-T

°C
Wind Press
QNH
hPa
Press
MSL
hPa
Rain
since
9 am
mm
Dir
 
Spd
km/h
Gust
km/h
Spd
kts
Gust
kts
01/07:30pm 15.5 15.7 11.7 78 2.0 SSW 2 6 1 3 1022.2 1022.2 0.0
01/07:00pm 15.9 15.1 11.1 73 2.6 SSW 6 9 3 5 1022.2 1022.2 0.0
01/06:30pm 16.3 15.5 11.0 71 2.8 SSW 6 9 3 5 1022.0 1022.0 0.0
01/06:00pm 16.8 15.5 10.0 64 3.6 SSW 7 11 4 6 1021.9 1021.9 0.0
01/05:30pm 16.7 15.6 9.9 64 3.6 SW 6 9 3 5 1021.6 1021.6 0.0
01/05:00pm 16.8 15.4 9.7 63 3.7 WSW 7 11 4 6 1021.5 1021.5 0.0
01/04:30pm 17.2 16.1 9.9 62 3.8 W 6 9 3 5 1021.4 1021.4 0.0
01/04:00pm 17.1 15.7 9.5 61 4.0 W 7 11 4 6 1021.4 1021.4 0.0
01/03:30pm 17.2 15.5 9.9 62 3.8 W 9 13 5 7 1021.2 1021.2 0.0
01/03:00pm 17.6 15.7 9.2 58 4.4 WNW 9 13 5 7 1021.1 1021.1 0.0
01/02:30pm 18.6 17.6 8.8 53 5.1 SE 4 9 2 5 1021.2 1021.2 0.0
01/02:00pm 17.4 15.9 8.3 55 4.6 SW 6 9 3 5 1021.5 1021.5 0.0
01/01:30pm 17.6 16.0 8.2 54 4.8 SSE 6 9 3 5 1021.6 1021.6 0.0
01/01:00pm 17.7 15.9 8.0 53 4.9 SSE 7 11 4 6 1022.0 1022.0 0.0
01/12:30pm 17.7 16.5 8.0 53 4.9 SSW 4 9 2 5 1022.4 1022.4 0.0
01/12:00pm 17.6 15.3 7.6 52 5.0 S 9 20 5 11 1022.9 1022.9 0.0
01/11:30am 17.6 15.6 7.1 50 5.2 S 7 13 4 7 1023.4 1023.4 0.0
01/11:00am 17.4 15.5 6.9 50 5.2 S 6 11 3 6 1023.6 1023.6 0.0
01/10:30am 17.5 16.0 7.0 50 5.2 ESE 4 7 2 4 1023.6 1023.6 0.0
01/10:00am 16.4 15.4 7.3 55 4.5 ESE 2 4 1 2 1023.7 1023.7 0.0
01/09:30am 15.3 14.2 6.8 57 4.2 ESE 2 4 1 2 1023.9 1023.9 0.0
01/09:00am 14.6 13.2 7.2 61 3.6 ESE 4 4 2 2 1023.7 1023.7 0.0
01/08:30am 14.2 13.2 7.3 63 3.4 ESE 2 6 1 3 1023.4 1023.4 0.0
01/08:00am 13.8 13.3 7.8 67 2.9 CALM 0 2 0 1 1022.9 1022.9 0.0
01/07:30am 13.4 12.5 7.8 69 2.8 ESE 2 6 1 3 1022.5 1022.5 0.0
01/07:00am 13.6 11.9 7.6 67 2.9 ESE 6 7 3 4 1022.1 1022.1 0.0
01/06:30am 13.8 13.2 7.6 66 3.0 CALM 0 0 0 0 1022.2 1022.2 0.0
01/06:00am 13.5 12.9 7.3 66 3.0 CALM 0 0 0 0 1022.0 1022.0 0.0
01/05:30am 13.9 12.3 8.1 68 2.9 SE 6 9 3 5 1021.8 1021.8 0.0
01/05:00am 13.8 12.3 8.4 70 2.7 S 6 9 3 5 1021.9 1021.9 0.0
01/04:30am 13.7 11.9 8.1 69 2.8 SSE 7 11 4 6 1021.9 1021.9 0.0
01/04:00am 13.5 11.3 7.7 68 2.8 SSE 9 11 5 6 1021.7 1021.7 0.0
01/03:30am 13.4 11.9 6.7 64 3.2 SE 4 6 2 3 1021.6 1021.6 0.0
01/03:00am 13.2 11.2 7.2 67 2.9 ESE 7 13 4 7 1021.7 1021.7 0.0
01/02:30am 13.2 11.5 7.6 69 2.7 SE 6 9 3 5 1022.0 1022.0 0.0
01/02:00am 13.1 11.3 7.8 70 2.6 ESE 7 13 4 7 1021.9 1021.9 0.0
01/01:30am 13.2 11.4 7.9 70 2.6 ESE 7 11 4 6 1021.8 1021.8 0.0
01/01:00am 13.4 11.8 7.8 69 2.7 ESE 6 9 3 5 1021.8 1021.8 0.0
01/12:30am 13.4 11.5 7.6 68 2.8 E 7 11 4 6 1021.7 1021.7 0.0
01/12:00am 13.6 11.9 8.2 70 2.7 ESE 7 11 4 6 1022.1 1022.1 0.0
 
Date/Time
WST
Tmp

°C
App
Tmp
°C
Dew
Point
°C
Rel
Hum
%
Delta-T

°C
Wind Press
QNH
hPa
Press
MSL
hPa
Rain
since
9 am
mm
Dir
 
Spd
km/h
Gust
km/h
Spd
kts
Gust
kts
30/11:30pm 13.6 12.1 8.4 71 2.6 ESE 6 9 3 5 1022.1 1022.1 0.0
30/11:00pm 13.9 12.2 8.5 70 2.7 SE 7 9 4 5 1022.1 1022.1 0.0
30/10:30pm 13.8 12.2 8.6 71 2.6 SE 7 11 4 6 1022.3 1022.3 0.0
30/10:00pm 14.4 12.5 9.0 70 2.7 SE 9 13 5 7 1022.1 1022.1 0.0
30/09:30pm 14.4 12.5 9.0 70 2.7 ESE 9 13 5 7 1021.9 1021.9 0.0
30/09:00pm 14.9 12.9 8.8 67 3.1 ESE 9 13 5 7 1021.8 1021.8 0.0
30/08:30pm 15.5 12.8 9.0 65 3.3 SE 13 19 7 10 1021.7 1021.7 0.0
30/08:00pm 15.9 13.4 8.4 61 3.8 SE 11 22 6 12 1021.6 1021.6 0.0
30/07:30pm 16.2 13.1 8.9 62 3.7 SE 15 22 8 12 1021.5 1021.5 0.0
30/07:00pm 16.3 13.6 8.8 61 3.8 SSE 13 19 7 10 1021.4 1021.4 0.0
30/06:30pm 16.4 14.5 9.1 62 3.8 S 9 13 5 7 1021.1 1021.1 0.0
30/06:00pm 16.6 14.7 9.1 61 3.9 S 9 13 5 7 1020.7 1020.7 0.0
30/05:30pm 16.7 14.7 8.7 59 4.1 SSW 9 15 5 8 1020.5 1020.5 0.0
30/05:00pm 17.1 14.6 8.3 56 4.5 SSW 11 15 6 8 1020.4 1020.4 0.0
30/04:30pm 17.3 14.9 8.7 57 4.4 SW 11 15 6 8 1020.3 1020.3 0.0
30/04:00pm 17.3 14.5 8.7 57 4.4 WSW 13 19 7 10 1020.1 1020.1 0.0
30/03:30pm 18.2 15.2 7.9 51 5.2 SW 13 22 7 12 1020.0 1020.0 0.0
30/03:00pm 18.6 16.2 6.8 46 5.9 SSW 9 15 5 8 1019.9 1019.9 0.0
30/02:30pm 18.2 15.2 6.1 45 6.0 SSW 11 15 6 8 1019.8 1019.8 0.0
30/02:00pm 18.6 16.1 6.4 45 6.0 S 9 15 5 8 1019.9 1019.9 0.0
30/01:30pm 18.5 16.4 6.7 46 5.9 SSW 7 13 4 7 1019.9 1019.9 0.0
30/01:00pm 18.1 15.9 6.3 46 5.8 SSE 7 13 4 7 1020.1 1020.1 0.0
30/12:30pm 17.8 15.7 6.7 48 5.5 SSE 7 13 4 7 1020.4 1020.4 0.0
30/12:00pm 17.6 15.2 6.8 49 5.3 SSE 9 17 5 9 1020.7 1020.7 0.0
30/11:30am 17.2 14.7 6.7 50 5.2 SSE 9 17 5 9 1020.9 1020.9 0.0
30/11:00am 16.8 14.0 6.9 52 4.9 SSE 11 19 6 10 1020.9 1020.9 0.0
30/10:30am 16.3 13.2 7.3 55 4.5 SE 13 17 7 9 1021.1 1021.1 0.0
30/10:00am 15.6 12.8 7.1 57 4.2 SE 11 19 6 10 1021.0 1021.0 0.0
30/09:30am 15.4 12.1 6.4 55 4.4 SSE 13 20 7 11 1020.9 1020.9 0.0
30/09:00am 14.8 12.1 7.4 61 3.6 SSE 11 17 6 9 1020.9 1020.9 7.2
30/08:30am 13.8 12.2 8.2 69 2.8 SE 6 11 3 6 1020.6 1020.6 7.2
30/08:00am 13.1 11.3 7.8 70 2.6 SE 7 11 4 6 1020.4 1020.4 7.2
30/07:30am 12.8 10.7 8.3 74 2.2 SE 9 13 5 7 1019.7 1019.7 7.0
30/07:00am 12.7 10.1 7.8 72 2.4 SE 11 15 6 8 1019.2 1019.2 7.0
30/06:30am 12.9 10.5 8.6 75 2.1 SE 11 19 6 10 1018.9 1018.9 7.0
30/06:00am 12.8 10.9 8.9 77 2.0 SE 9 13 5 7 1018.8 1018.8 7.0
30/05:30am 13.0 11.1 8.9 76 2.1 SE 9 13 5 7 1018.3 1018.3 7.0
30/05:00am 13.1 11.2 9.2 77 2.0 SE 9 13 5 7 1018.0 1018.0 7.0
30/04:30am 13.2 11.0 9.3 77 2.0 SE 11 20 6 11 1017.8 1017.8 7.0
30/04:00am 13.5 10.5 9.2 75 2.2 SE 15 24 8 13 1017.4 1017.4 7.0
30/03:30am 13.7 10.7 9.4 75 2.2 SSE 15 22 8 12 1017.2 1017.2 7.0
30/03:00am 13.6 11.2 10.0 79 1.9 SE 13 20 7 11 1017.2 1017.2 7.0
30/02:30am 13.8 12.4 10.8 82 1.6 SSE 9 17 5 9 1017.1 1017.1 7.0
30/02:00am 13.9 12.2 11.1 83 1.5 SSE 11 17 6 9 1016.8 1016.8 7.0
30/01:30am 14.1 12.0 11.1 82 1.6 SSE 13 24 7 13 1016.7 1016.7 7.0
30/01:00am 14.3 12.4 11.8 85 1.3 SSE 13 19 7 10 1016.6 1016.6 7.0
30/12:30am 14.7 13.1 12.7 88 1.1 SSE 13 22 7 12 1016.5 1016.5 7.0
30/12:00am 15.2 14.0 14.1 93 0.6 SSE 13 20 7 11 1016.1 1016.1 7.0
 
Date/Time
WST
Tmp

°C
App
Tmp
°C
Dew
Point
°C
Rel
Hum
%
Delta-T

°C
Wind Press
QNH
hPa
Press
MSL
hPa
Rain
since
9 am
mm
Dir
 
Spd
km/h
Gust
km/h
Spd
kts
Gust
kts
29/11:30pm 15.0 15.3 15.0 100 0.0 SSE 7 9 4 5 1016.2 1016.2 7.0
29/11:00pm 15.3 15.7 15.3 100 0.0 SSE 7 9 4 5 1016.0 1016.0 7.0
29/10:30pm 15.3 15.7 15.3 100 0.0 SSE 7 15 4 8 1016.0 1016.0 6.8
29/10:00pm 15.3 16.3 15.3 100 0.0 SSE 4 6 2 3 1015.6 1015.6 6.4
29/09:30pm 15.3 15.7 15.3 100 0.0 S 7 11 4 6 1015.7 1015.7 6.4
29/09:00pm 15.3 15.7 15.3 100 0.0 S 7 13 4 7 1015.4 1015.4 6.0
29/08:30pm 15.1 13.9 15.1 100 0.0 S 15 22 8 12 1015.2 1015.2 5.8
29/08:00pm 16.2 14.0 14.9 92 0.7 SW 20 59 11 32 1014.8 1014.8 2.8
29/07:30pm 17.3 14.5 15.3 88 1.2 WSW 24 37 13 20 1014.6 1014.6 2.4
29/07:00pm 16.5 11.8 13.2 81 1.8 WSW 30 48 16 26 1014.5 1014.5 2.4
29/06:55pm 17.9 13.1 12.8 72 2.8 WSW 30 48 16 26 1014.5 1014.5 0.8
29/06:30pm 19.2 14.1 13.2 68 3.4 W 32 46 17 25 1013.7 1013.7 0.0
29/06:01pm 19.2 14.7 12.5 65 3.7 W 28 46 15 25 1013.5 1013.5 0.0
29/06:00pm 19.2 14.3 12.5 65 3.7 W 30 46 16 25 1013.5 1013.5 0.0
29/05:53pm 19.2 14.8 12.9 67 3.5 W 28 46 15 25 1013.5 1013.5 0.0
29/05:30pm 19.2 14.7 11.3 60 4.3 W 26 41 14 22 1013.6 1013.6 0.0
29/05:00pm 19.3 13.9 12.3 64 3.9 W 32 48 17 26 1013.5 1013.5 0.0
29/04:30pm 19.7 15.2 12.5 63 4.0 W 28 48 15 26 1013.6 1013.6 0.0
29/04:00pm 19.9 15.6 12.2 61 4.3 W 26 39 14 21 1013.7 1013.7 0.0
29/03:30pm 19.1 14.9 12.4 65 3.7 W 26 39 14 21 1013.8 1013.8 0.0
29/03:18pm 19.6 15.0 12.4 63 4.0 WSW 28 48 15 26 1013.8 1013.8 0.0
29/03:00pm 20.5 16.5 11.7 57 4.9 W 24 33 13 18 1013.6 1013.6 0.0
29/02:30pm 20.4 15.5 12.4 60 4.5 W 30 41 16 22 1013.6 1013.6 0.0
29/02:00pm 19.5 15.8 12.8 65 3.8 W 24 37 13 20 1013.7 1013.7 0.0
29/01:30pm 20.7 16.4 10.8 53 5.4 W 24 35 13 19 1013.8 1013.8 0.0
29/01:00pm 20.7 17.0 11.6 56 5.0 WSW 22 35 12 19 1014.1 1014.1 0.0
29/12:30pm 20.4 15.8 11.1 55 5.1 W 26 37 14 20 1014.4 1014.4 0.0
29/12:00pm 20.5 15.6 11.4 56 5.0 W 28 37 15 20 1014.6 1014.6 0.0
29/11:30am 19.6 16.8 12.6 64 3.9 WSW 19 35 10 19 1014.9 1014.9 0.0
29/11:00am 19.6 15.1 11.4 59 4.5 W 26 37 14 20 1015.0 1015.0 0.0
29/10:30am 20.0 16.4 12.0 60 4.5 W 22 32 12 17 1015.0 1015.0 0.0
29/10:00am 19.2 16.3 12.9 67 3.5 WSW 20 32 11 17 1015.2 1015.2 0.0
29/09:30am 19.8 17.2 12.1 61 4.3 W 17 28 9 15 1015.0 1015.0 0.0
29/09:00am 18.3 15.3 12.7 70 3.1 WSW 20 32 11 17 1015.3 1015.3 0.2
29/08:30am 18.8 15.7 12.3 66 3.6 W 20 28 11 15 1015.1 1015.1 0.2
29/08:00am 18.8 15.7 11.6 63 3.9 W 19 32 10 17 1014.9 1014.9 0.2
29/07:30am 18.5 15.8 11.6 64 3.8 W 17 26 9 14 1014.8 1014.8 0.2
29/07:00am 18.3 15.1 11.4 64 3.8 W 19 26 10 14 1014.6 1014.6 0.2
29/06:30am 18.3 16.2 12.5 69 3.2 W 15 22 8 12 1014.6 1014.6 0.2
29/06:00am 18.1 15.6 11.2 64 3.7 W 15 24 8 13 1014.6 1014.6 0.2
29/05:30am 17.6 14.7 14.1 80 2.0 WNW 22 30 12 16 1014.5 1014.5 0.2
29/05:00am 17.6 15.9 12.3 71 2.9 WSW 13 20 7 11 1014.5 1014.5 0.2
29/04:30am 17.1 13.7 12.4 74 2.6 WSW 22 37 12 20 1014.7 1014.7 0.2
29/04:00am 17.8 16.1 12.3 70 3.0 SW 13 20 7 11 1014.5 1014.5 0.2
29/03:30am 17.4 15.7 12.3 72 2.8 WSW 13 20 7 11 1014.7 1014.7 0.2
29/03:00am 17.7 15.1 11.9 69 3.2 WSW 17 26 9 14 1015.2 1015.2 0.0
29/02:30am 18.1 15.4 11.7 66 3.5 WSW 17 26 9 14 1015.0 1015.0 0.0
29/02:00am 18.2 15.6 12.0 67 3.4 WSW 17 30 9 16 1015.0 1015.0 0.0
29/01:30am 18.2 15.4 11.3 64 3.8 WSW 17 26 9 14 1014.9 1014.9 0.0
29/01:00am 17.8 15.6 10.9 64 3.7 SW 13 20 7 11 1014.7 1014.7 0.0
29/12:30am 17.9 15.5 11.5 66 3.5 SW 15 24 8 13 1014.8 1014.8 0.0
29/12:00am 18.2 15.4 11.5 65 3.7 SW 17 24 9 13 1014.9 1014.9 0.0
 
Date/Time
WST
Tmp

°C
App
Tmp
°C
Dew
Point
°C
Rel
Hum
%
Delta-T

°C
Wind Press
QNH
hPa
Press
MSL
hPa
Rain
since
9 am
mm
Dir
 
Spd
km/h
Gust
km/h
Spd
kts
Gust
kts
28/11:30pm 18.3 15.3 10.7 61 4.1 WSW 17 24 9 13 1015.1 1015.1 0.0
28/11:00pm 18.2 15.4 11.5 65 3.7 SW 17 24 9 13 1015.3 1015.3 0.0
28/10:30pm 18.1 16.0 11.0 63 3.8 SW 13 19 7 10 1015.4 1015.4 0.0
28/10:00pm 18.0 16.9 11.8 67 3.4 SW 9 19 5 10 1015.4 1015.4 0.0
28/09:30pm 17.2 16.1 12.1 72 2.8 SSW 9 17 5 9 1015.4 1015.4 0.0
28/09:00pm 17.9 14.1 12.4 70 3.0 SW 24 37 13 20 1015.3 1015.3 0.0
28/08:30pm 18.2 16.1 11.3 64 3.8 SW 13 19 7 10 1015.1 1015.1 0.0
28/08:00pm 18.5 15.8 11.6 64 3.8 SW 17 26 9 14 1015.0 1015.0 0.0

Latest Capital City Observations: Canberra | Sydney | Melbourne | Brisbane | Adelaide | Perth | Hobart | Darwin

Other Formats:

Comma delimited format used in spreadsheet applications
http://www.bom.gov.au/fwo/IDW60901/IDW60901.94605.axf

JavaScript Object Notation format (JSON) in row-major order
http://www.bom.gov.au/fwo/IDW60901/IDW60901.94605.json